sensor_id;sensor_type;location;lat;lon;timestamp;P1;durP1;ratioP1;P2;durP2;ratioP2
22320;SDS011;11328;53.928;18.522;2022-07-18T00:01:08;10.23;;;2.92;;
22320;SDS011;11328;53.928;18.522;2022-07-18T00:03:35;11.90;;;3.50;;
22320;SDS011;11328;53.928;18.522;2022-07-18T00:06:01;8.40;;;3.10;;
22320;SDS011;11328;53.928;18.522;2022-07-18T00:08:28;7.80;;;2.80;;
22320;SDS011;11328;53.928;18.522;2022-07-18T00:10:55;9.82;;;3.10;;
22320;SDS011;11328;53.928;18.522;2022-07-18T00:13:22;8.25;;;3.33;;
22320;SDS011;11328;53.928;18.522;2022-07-18T00:15:49;11.05;;;3.30;;
22320;SDS011;11328;53.928;18.522;2022-07-18T00:18:16;8.57;;;2.60;;
22320;SDS011;11328;53.928;18.522;2022-07-18T00:20:43;9.57;;;3.03;;
22320;SDS011;11328;53.928;18.522;2022-07-18T00:23:10;10.82;;;3.53;;
22320;SDS011;11328;53.928;18.522;2022-07-18T00:25:37;8.52;;;2.95;;
22320;SDS011;11328;53.928;18.522;2022-07-18T00:28:04;11.98;;;3.38;;
22320;SDS011;11328;53.928;18.522;2022-07-18T00:30:31;8.38;;;2.90;;
22320;SDS011;11328;53.928;18.522;2022-07-18T00:32:58;9.10;;;2.78;;
22320;SDS011;11328;53.928;18.522;2022-07-18T00:35:25;8.68;;;3.00;;
22320;SDS011;11328;53.928;18.522;2022-07-18T00:37:52;9.48;;;3.00;;
22320;SDS011;11328;53.928;18.522;2022-07-18T00:40:19;11.30;;;3.10;;
22320;SDS011;11328;53.928;18.522;2022-07-18T00:42:45;11.05;;;3.13;;
22320;SDS011;11328;53.928;18.522;2022-07-18T00:45:12;11.32;;;3.50;;
22320;SDS011;11328;53.928;18.522;2022-07-18T00:47:40;9.52;;;3.50;;
22320;SDS011;11328;53.928;18.522;2022-07-18T00:50:07;9.07;;;2.90;;
22320;SDS011;11328;53.928;18.522;2022-07-18T00:52:35;8.63;;;2.92;;
22320;SDS011;11328;53.928;18.522;2022-07-18T00:55:05;9.95;;;3.17;;
22320;SDS011;11328;53.928;18.522;2022-07-18T00:57:33;8.07;;;3.33;;
22320;SDS011;11328;53.928;18.522;2022-07-18T01:00:00;12.45;;;2.83;;
22320;SDS011;11328;53.928;18.522;2022-07-18T01:02:46;8.20;;;3.20;;
22320;SDS011;11328;53.928;18.522;2022-07-18T01:05:13;10.52;;;3.08;;
22320;SDS011;11328;53.928;18.522;2022-07-18T01:07:40;10.13;;;3.28;;
22320;SDS011;11328;53.928;18.522;2022-07-18T01:10:07;8.95;;;3.28;;
22320;SDS011;11328;53.928;18.522;2022-07-18T01:12:35;12.00;;;3.45;;
22320;SDS011;11328;53.928;18.522;2022-07-18T01:15:02;10.98;;;3.00;;
22320;SDS011;11328;53.928;18.522;2022-07-18T01:17:31;7.20;;;2.92;;
22320;SDS011;11328;53.928;18.522;2022-07-18T01:20:00;12.45;;;3.40;;
22320;SDS011;11328;53.928;18.522;2022-07-18T01:22:30;10.13;;;3.13;;
22320;SDS011;11328;53.928;18.522;2022-07-18T01:24:57;11.13;;;3.15;;
22320;SDS011;11328;53.928;18.522;2022-07-18T01:27:24;8.13;;;2.88;;
22320;SDS011;11328;53.928;18.522;2022-07-18T01:29:52;7.75;;;2.90;;
22320;SDS011;11328;53.928;18.522;2022-07-18T01:32:20;9.65;;;3.10;;
22320;SDS011;11328;53.928;18.522;2022-07-18T01:34:47;10.00;;;3.53;;
22320;SDS011;11328;53.928;18.522;2022-07-18T01:37:16;8.65;;;3.20;;
22320;SDS011;11328;53.928;18.522;2022-07-18T01:39:44;8.55;;;3.40;;
22320;SDS011;11328;53.928;18.522;2022-07-18T01:42:12;8.27;;;3.20;;
22320;SDS011;11328;53.928;18.522;2022-07-18T01:44:40;9.50;;;3.03;;
22320;SDS011;11328;53.928;18.522;2022-07-18T01:47:08;11.00;;;3.42;;
22320;SDS011;11328;53.928;18.522;2022-07-18T01:49:37;10.13;;;3.30;;
22320;SDS011;11328;53.928;18.522;2022-07-18T01:52:05;11.30;;;3.28;;
22320;SDS011;11328;53.928;18.522;2022-07-18T01:54:33;10.57;;;3.20;;
22320;SDS011;11328;53.928;18.522;2022-07-18T01:57:02;10.55;;;3.35;;
22320;SDS011;11328;53.928;18.522;2022-07-18T01:59:32;9.13;;;3.83;;
22320;SDS011;11328;53.928;18.522;2022-07-18T02:01:59;11.48;;;3.30;;
22320;SDS011;11328;53.928;18.522;2022-07-18T02:04:26;11.90;;;3.38;;
22320;SDS011;11328;53.928;18.522;2022-07-18T02:07:11;9.57;;;3.63;;
22320;SDS011;11328;53.928;18.522;2022-07-18T02:09:38;11.10;;;3.42;;
22320;SDS011;11328;53.928;18.522;2022-07-18T02:12:05;10.07;;;3.30;;
22320;SDS011;11328;53.928;18.522;2022-07-18T02:14:32;7.80;;;3.28;;
22320;SDS011;11328;53.928;18.522;2022-07-18T02:16:59;8.23;;;3.22;;
22320;SDS011;11328;53.928;18.522;2022-07-18T02:19:26;8.40;;;3.25;;
22320;SDS011;11328;53.928;18.522;2022-07-18T02:21:53;8.63;;;3.42;;
22320;SDS011;11328;53.928;18.522;2022-07-18T02:24:20;8.80;;;3.33;;
22320;SDS011;11328;53.928;18.522;2022-07-18T02:26:47;7.70;;;3.13;;
22320;SDS011;11328;53.928;18.522;2022-07-18T02:29:14;7.65;;;3.03;;
22320;SDS011;11328;53.928;18.522;2022-07-18T02:31:41;9.57;;;3.70;;
22320;SDS011;11328;53.928;18.522;2022-07-18T02:34:08;7.63;;;3.22;;
22320;SDS011;11328;53.928;18.522;2022-07-18T02:36:37;8.57;;;3.35;;
22320;SDS011;11328;53.928;18.522;2022-07-18T02:39:06;9.98;;;3.40;;
22320;SDS011;11328;53.928;18.522;2022-07-18T02:41:34;11.55;;;3.50;;
22320;SDS011;11328;53.928;18.522;2022-07-18T02:44:04;11.63;;;3.67;;
22320;SDS011;11328;53.928;18.522;2022-07-18T02:46:31;10.55;;;3.85;;
22320;SDS011;11328;53.928;18.522;2022-07-18T02:48:59;10.13;;;3.80;;
22320;SDS011;11328;53.928;18.522;2022-07-18T02:51:26;9.30;;;3.47;;
22320;SDS011;11328;53.928;18.522;2022-07-18T02:53:53;15.63;;;4.07;;
22320;SDS011;11328;53.928;18.522;2022-07-18T02:56:20;11.15;;;3.97;;
22320;SDS011;11328;53.928;18.522;2022-07-18T02:58:48;9.80;;;3.70;;
22320;SDS011;11328;53.928;18.522;2022-07-18T03:01:15;11.57;;;3.92;;
22320;SDS011;11328;53.928;18.522;2022-07-18T03:03:42;10.70;;;3.50;;
22320;SDS011;11328;53.928;18.522;2022-07-18T03:06:09;12.40;;;3.75;;
22320;SDS011;11328;53.928;18.522;2022-07-18T03:08:36;11.55;;;3.78;;
22320;SDS011;11328;53.928;18.522;2022-07-18T03:11:03;11.73;;;3.95;;
22320;SDS011;11328;53.928;18.522;2022-07-18T03:13:29;11.00;;;3.88;;
22320;SDS011;11328;53.928;18.522;2022-07-18T03:15:56;8.13;;;3.60;;
22320;SDS011;11328;53.928;18.522;2022-07-18T03:18:23;8.10;;;3.60;;
22320;SDS011;11328;53.928;18.522;2022-07-18T03:20:52;13.30;;;4.05;;
22320;SDS011;11328;53.928;18.522;2022-07-18T03:23:19;9.43;;;3.72;;
22320;SDS011;11328;53.928;18.522;2022-07-18T03:25:46;11.85;;;3.55;;
22320;SDS011;11328;53.928;18.522;2022-07-18T03:28:13;10.25;;;3.63;;
22320;SDS011;11328;53.928;18.522;2022-07-18T03:30:40;8.57;;;4.30;;
22320;SDS011;11328;53.928;18.522;2022-07-18T03:33:07;10.77;;;4.00;;
22320;SDS011;11328;53.928;18.522;2022-07-18T03:35:34;8.32;;;3.58;;
22320;SDS011;11328;53.928;18.522;2022-07-18T03:38:01;11.38;;;3.90;;
22320;SDS011;11328;53.928;18.522;2022-07-18T03:40:28;11.07;;;3.97;;
22320;SDS011;11328;53.928;18.522;2022-07-18T03:42:56;8.90;;;3.80;;
22320;SDS011;11328;53.928;18.522;2022-07-18T03:45:23;8.98;;;3.65;;
22320;SDS011;11328;53.928;18.522;2022-07-18T03:47:50;11.25;;;4.25;;
22320;SDS011;11328;53.928;18.522;2022-07-18T03:50:16;8.35;;;3.55;;
22320;SDS011;11328;53.928;18.522;2022-07-18T03:52:43;9.57;;;3.78;;
22320;SDS011;11328;53.928;18.522;2022-07-18T03:55:11;8.40;;;3.30;;
22320;SDS011;11328;53.928;18.522;2022-07-18T03:57:38;10.90;;;3.60;;
22320;SDS011;11328;53.928;18.522;2022-07-18T04:00:05;11.27;;;3.92;;
22320;SDS011;11328;53.928;18.522;2022-07-18T04:02:38;10.13;;;3.70;;
22320;SDS011;11328;53.928;18.522;2022-07-18T04:05:07;10.63;;;3.97;;
22320;SDS011;11328;53.928;18.522;2022-07-18T04:07:36;9.90;;;3.67;;
22320;SDS011;11328;53.928;18.522;2022-07-18T04:10:04;8.63;;;3.83;;
22320;SDS011;11328;53.928;18.522;2022-07-18T04:12:33;10.90;;;3.70;;
22320;SDS011;11328;53.928;18.522;2022-07-18T04:15:00;10.30;;;3.58;;
22320;SDS011;11328;53.928;18.522;2022-07-18T04:17:29;7.72;;;3.78;;
22320;SDS011;11328;53.928;18.522;2022-07-18T04:19:56;10.95;;;4.03;;
22320;SDS011;11328;53.928;18.522;2022-07-18T04:22:23;10.88;;;3.63;;
22320;SDS011;11328;53.928;18.522;2022-07-18T04:24:50;9.25;;;3.92;;
22320;SDS011;11328;53.928;18.522;2022-07-18T04:27:18;9.50;;;3.83;;
22320;SDS011;11328;53.928;18.522;2022-07-18T04:29:45;11.43;;;4.20;;
22320;SDS011;11328;53.928;18.522;2022-07-18T04:32:12;12.52;;;3.63;;
22320;SDS011;11328;53.928;18.522;2022-07-18T04:34:39;9.48;;;3.95;;
22320;SDS011;11328;53.928;18.522;2022-07-18T04:37:06;10.45;;;3.92;;
22320;SDS011;11328;53.928;18.522;2022-07-18T04:39:33;12.88;;;4.00;;
22320;SDS011;11328;53.928;18.522;2022-07-18T04:42:00;9.73;;;3.80;;
22320;SDS011;11328;53.928;18.522;2022-07-18T04:44:27;10.02;;;4.03;;
22320;SDS011;11328;53.928;18.522;2022-07-18T04:46:54;8.50;;;3.70;;
22320;SDS011;11328;53.928;18.522;2022-07-18T04:49:21;10.43;;;3.70;;
22320;SDS011;11328;53.928;18.522;2022-07-18T04:51:48;10.13;;;3.97;;
22320;SDS011;11328;53.928;18.522;2022-07-18T04:54:15;12.23;;;3.88;;
22320;SDS011;11328;53.928;18.522;2022-07-18T04:56:42;9.57;;;3.72;;
22320;SDS011;11328;53.928;18.522;2022-07-18T04:59:12;11.98;;;3.63;;
22320;SDS011;11328;53.928;18.522;2022-07-18T05:01:39;10.82;;;3.70;;
22320;SDS011;11328;53.928;18.522;2022-07-18T05:04:06;10.25;;;3.88;;
22320;SDS011;11328;53.928;18.522;2022-07-18T05:06:33;10.25;;;3.80;;
22320;SDS011;11328;53.928;18.522;2022-07-18T05:09:00;11.07;;;4.05;;
22320;SDS011;11328;53.928;18.522;2022-07-18T05:11:27;8.90;;;3.78;;
22320;SDS011;11328;53.928;18.522;2022-07-18T05:13:54;8.95;;;3.50;;
22320;SDS011;11328;53.928;18.522;2022-07-18T05:16:21;8.07;;;3.25;;
22320;SDS011;11328;53.928;18.522;2022-07-18T05:18:48;8.60;;;3.75;;
22320;SDS011;11328;53.928;18.522;2022-07-18T05:21:15;9.88;;;3.50;;
22320;SDS011;11328;53.928;18.522;2022-07-18T05:23:42;11.95;;;3.40;;
22320;SDS011;11328;53.928;18.522;2022-07-18T05:26:11;10.73;;;3.22;;
22320;SDS011;11328;53.928;18.522;2022-07-18T05:28:38;9.38;;;3.25;;
22320;SDS011;11328;53.928;18.522;2022-07-18T05:31:05;7.78;;;3.00;;
22320;SDS011;11328;53.928;18.522;2022-07-18T05:33:32;7.68;;;3.15;;
22320;SDS011;11328;53.928;18.522;2022-07-18T05:36:02;9.07;;;3.03;;
22320;SDS011;11328;53.928;18.522;2022-07-18T05:38:31;8.30;;;3.10;;
22320;SDS011;11328;53.928;18.522;2022-07-18T05:40:57;7.80;;;3.00;;
22320;SDS011;11328;53.928;18.522;2022-07-18T05:43:24;8.40;;;3.15;;
22320;SDS011;11328;53.928;18.522;2022-07-18T05:45:51;10.25;;;3.13;;
22320;SDS011;11328;53.928;18.522;2022-07-18T05:48:19;13.23;;;3.67;;
22320;SDS011;11328;53.928;18.522;2022-07-18T05:50:45;12.98;;;3.60;;
22320;SDS011;11328;53.928;18.522;2022-07-18T05:53:12;9.77;;;3.40;;
22320;SDS011;11328;53.928;18.522;2022-07-18T05:55:39;9.23;;;2.95;;
22320;SDS011;11328;53.928;18.522;2022-07-18T05:58:06;8.40;;;3.00;;
22320;SDS011;11328;53.928;18.522;2022-07-18T06:00:33;13.43;;;3.40;;
22320;SDS011;11328;53.928;18.522;2022-07-18T06:03:01;8.52;;;3.28;;
22320;SDS011;11328;53.928;18.522;2022-07-18T06:05:28;6.82;;;3.03;;
22320;SDS011;11328;53.928;18.522;2022-07-18T06:07:55;11.43;;;3.15;;
22320;SDS011;11328;53.928;18.522;2022-07-18T06:10:23;9.57;;;3.05;;
22320;SDS011;11328;53.928;18.522;2022-07-18T06:12:52;7.47;;;3.00;;
22320;SDS011;11328;53.928;18.522;2022-07-18T06:15:20;10.55;;;3.28;;
22320;SDS011;11328;53.928;18.522;2022-07-18T06:17:48;10.18;;;3.30;;
22320;SDS011;11328;53.928;18.522;2022-07-18T06:20:16;10.27;;;3.20;;
22320;SDS011;11328;53.928;18.522;2022-07-18T06:22:43;11.00;;;3.33;;
22320;SDS011;11328;53.928;18.522;2022-07-18T06:25:11;9.40;;;3.10;;
22320;SDS011;11328;53.928;18.522;2022-07-18T06:27:38;7.60;;;2.80;;
22320;SDS011;11328;53.928;18.522;2022-07-18T06:30:06;9.60;;;3.15;;
22320;SDS011;11328;53.928;18.522;2022-07-18T06:32:36;8.90;;;2.97;;
22320;SDS011;11328;53.928;18.522;2022-07-18T06:35:03;7.78;;;2.70;;
22320;SDS011;11328;53.928;18.522;2022-07-18T06:37:32;8.10;;;2.80;;
22320;SDS011;11328;53.928;18.522;2022-07-18T06:39:59;6.40;;;2.83;;
22320;SDS011;11328;53.928;18.522;2022-07-18T06:42:29;8.13;;;2.95;;
22320;SDS011;11328;53.928;18.522;2022-07-18T06:44:56;8.98;;;2.72;;
22320;SDS011;11328;53.928;18.522;2022-07-18T06:47:23;7.93;;;2.80;;
22320;SDS011;11328;53.928;18.522;2022-07-18T06:49:49;8.05;;;2.90;;
22320;SDS011;11328;53.928;18.522;2022-07-18T06:52:16;10.07;;;3.00;;
22320;SDS011;11328;53.928;18.522;2022-07-18T06:54:43;10.20;;;3.05;;
22320;SDS011;11328;53.928;18.522;2022-07-18T06:57:10;9.43;;;3.00;;
22320;SDS011;11328;53.928;18.522;2022-07-18T06:59:37;8.70;;;3.13;;
22320;SDS011;11328;53.928;18.522;2022-07-18T07:02:11;7.20;;;2.85;;
22320;SDS011;11328;53.928;18.522;2022-07-18T07:04:38;11.75;;;3.03;;
22320;SDS011;11328;53.928;18.522;2022-07-18T07:07:05;9.35;;;2.83;;
22320;SDS011;11328;53.928;18.522;2022-07-18T07:09:32;8.38;;;3.00;;
22320;SDS011;11328;53.928;18.522;2022-07-18T07:11:59;9.52;;;3.60;;
22320;SDS011;11328;53.928;18.522;2022-07-18T07:14:26;8.65;;;3.20;;
22320;SDS011;11328;53.928;18.522;2022-07-18T07:16:53;8.60;;;2.90;;
22320;SDS011;11328;53.928;18.522;2022-07-18T07:19:20;9.40;;;2.90;;
22320;SDS011;11328;53.928;18.522;2022-07-18T07:21:46;8.82;;;3.50;;
22320;SDS011;11328;53.928;18.522;2022-07-18T07:24:13;9.98;;;3.38;;
22320;SDS011;11328;53.928;18.522;2022-07-18T07:26:40;7.55;;;3.10;;
22320;SDS011;11328;53.928;18.522;2022-07-18T07:29:07;8.20;;;3.10;;
22320;SDS011;11328;53.928;18.522;2022-07-18T07:31:34;10.13;;;3.28;;
22320;SDS011;11328;53.928;18.522;2022-07-18T07:34:01;7.10;;;2.90;;
22320;SDS011;11328;53.928;18.522;2022-07-18T07:36:32;7.93;;;3.50;;
22320;SDS011;11328;53.928;18.522;2022-07-18T07:38:59;8.18;;;2.95;;
22320;SDS011;11328;53.928;18.522;2022-07-18T07:41:27;7.47;;;3.00;;
22320;SDS011;11328;53.928;18.522;2022-07-18T07:43:54;8.30;;;2.90;;
22320;SDS011;11328;53.928;18.522;2022-07-18T07:46:21;10.55;;;3.40;;
22320;SDS011;11328;53.928;18.522;2022-07-18T07:48:48;9.23;;;3.25;;
22320;SDS011;11328;53.928;18.522;2022-07-18T07:51:15;15.48;;;3.40;;
22320;SDS011;11328;53.928;18.522;2022-07-18T07:53:50;7.15;;;3.00;;
22320;SDS011;11328;53.928;18.522;2022-07-18T07:56:16;8.60;;;3.30;;
22320;SDS011;11328;53.928;18.522;2022-07-18T07:58:46;8.57;;;3.22;;
22320;SDS011;11328;53.928;18.522;2022-07-18T08:01:16;7.22;;;2.90;;
22320;SDS011;11328;53.928;18.522;2022-07-18T08:03:45;7.97;;;3.07;;
22320;SDS011;11328;53.928;18.522;2022-07-18T08:06:14;7.20;;;3.05;;
22320;SDS011;11328;53.928;18.522;2022-07-18T08:08:42;12.02;;;3.35;;
22320;SDS011;11328;53.928;18.522;2022-07-18T08:11:09;8.38;;;3.50;;
22320;SDS011;11328;53.928;18.522;2022-07-18T08:13:36;7.82;;;3.10;;
22320;SDS011;11328;53.928;18.522;2022-07-18T08:16:03;9.07;;;3.63;;
22320;SDS011;11328;53.928;18.522;2022-07-18T08:18:30;10.18;;;3.60;;
22320;SDS011;11328;53.928;18.522;2022-07-18T08:20:57;8.88;;;3.05;;
22320;SDS011;11328;53.928;18.522;2022-07-18T08:23:24;8.32;;;2.90;;
22320;SDS011;11328;53.928;18.522;2022-07-18T08:25:51;9.05;;;3.33;;
22320;SDS011;11328;53.928;18.522;2022-07-18T08:28:18;11.20;;;3.35;;
22320;SDS011;11328;53.928;18.522;2022-07-18T08:30:45;9.45;;;3.30;;
22320;SDS011;11328;53.928;18.522;2022-07-18T08:33:12;12.50;;;3.33;;
22320;SDS011;11328;53.928;18.522;2022-07-18T08:35:42;6.95;;;2.95;;
22320;SDS011;11328;53.928;18.522;2022-07-18T08:38:09;7.22;;;3.13;;
22320;SDS011;11328;53.928;18.522;2022-07-18T08:40:37;10.10;;;3.15;;
22320;SDS011;11328;53.928;18.522;2022-07-18T08:43:04;10.02;;;3.55;;
22320;SDS011;11328;53.928;18.522;2022-07-18T08:45:49;9.18;;;3.20;;
22320;SDS011;11328;53.928;18.522;2022-07-18T08:48:23;9.25;;;3.20;;
22320;SDS011;11328;53.928;18.522;2022-07-18T08:50:50;8.60;;;3.50;;
22320;SDS011;11328;53.928;18.522;2022-07-18T08:53:17;6.88;;;3.35;;
22320;SDS011;11328;53.928;18.522;2022-07-18T08:55:46;6.88;;;2.92;;
22320;SDS011;11328;53.928;18.522;2022-07-18T08:58:14;7.72;;;3.20;;
22320;SDS011;11328;53.928;18.522;2022-07-18T09:01:04;7.70;;;3.30;;
22320;SDS011;11328;53.928;18.522;2022-07-18T09:03:32;10.77;;;5.93;;
22320;SDS011;11328;53.928;18.522;2022-07-18T09:06:06;9.82;;;3.95;;
22320;SDS011;11328;53.928;18.522;2022-07-18T09:08:40;10.35;;;3.40;;
22320;SDS011;11328;53.928;18.522;2022-07-18T09:11:27;10.35;;;3.50;;
22320;SDS011;11328;53.928;18.522;2022-07-18T09:14:28;6.43;;;3.20;;
22320;SDS011;11328;53.928;18.522;2022-07-18T09:17:19;10.55;;;3.88;;
22320;SDS011;11328;53.928;18.522;2022-07-18T09:19:56;10.23;;;3.50;;
22320;SDS011;11328;53.928;18.522;2022-07-18T09:22:39;9.63;;;3.20;;
22320;SDS011;11328;53.928;18.522;2022-07-18T09:25:13;8.00;;;3.25;;
22320;SDS011;11328;53.928;18.522;2022-07-18T09:27:43;9.55;;;3.58;;
22320;SDS011;11328;53.928;18.522;2022-07-18T09:33:04;7.25;;;3.22;;
22320;SDS011;11328;53.928;18.522;2022-07-18T09:35:35;7.07;;;2.88;;
22320;SDS011;11328;53.928;18.522;2022-07-18T09:38:17;8.45;;;3.20;;
22320;SDS011;11328;53.928;18.522;2022-07-18T09:40:54;19.00;;;3.60;;
22320;SDS011;11328;53.928;18.522;2022-07-18T09:43:24;7.68;;;2.90;;
22320;SDS011;11328;53.928;18.522;2022-07-18T09:45:54;12.85;;;3.28;;
22320;SDS011;11328;53.928;18.522;2022-07-18T09:48:23;6.32;;;2.92;;
22320;SDS011;11328;53.928;18.522;2022-07-18T09:53:27;10.07;;;2.95;;
22320;SDS011;11328;53.928;18.522;2022-07-18T09:56:01;12.07;;;3.33;;
22320;SDS011;11328;53.928;18.522;2022-07-18T09:58:35;7.65;;;2.97;;
22320;SDS011;11328;53.928;18.522;2022-07-18T10:01:22;8.05;;;2.95;;
22320;SDS011;11328;53.928;18.522;2022-07-18T10:03:50;7.75;;;2.67;;
22320;SDS011;11328;53.928;18.522;2022-07-18T10:06:18;7.43;;;2.80;;
22320;SDS011;11328;53.928;18.522;2022-07-18T10:08:45;8.90;;;2.80;;
22320;SDS011;11328;53.928;18.522;2022-07-18T10:11:12;11.52;;;3.00;;
22320;SDS011;11328;53.928;18.522;2022-07-18T10:13:40;7.38;;;2.55;;
22320;SDS011;11328;53.928;18.522;2022-07-18T10:16:07;7.50;;;2.92;;
22320;SDS011;11328;53.928;18.522;2022-07-18T10:18:35;7.80;;;2.47;;
22320;SDS011;11328;53.928;18.522;2022-07-18T10:21:09;7.78;;;2.70;;
22320;SDS011;11328;53.928;18.522;2022-07-18T10:23:42;7.22;;;2.67;;
22320;SDS011;11328;53.928;18.522;2022-07-18T10:36:42;7.70;;;2.78;;
22320;SDS011;11328;53.928;18.522;2022-07-18T10:39:34;7.60;;;2.55;;
22320;SDS011;11328;53.928;18.522;2022-07-18T10:44:38;5.85;;;2.67;;
22320;SDS011;11328;53.928;18.522;2022-07-18T10:47:08;8.75;;;2.88;;
22320;SDS011;11328;53.928;18.522;2022-07-18T10:50:11;6.80;;;2.70;;
22320;SDS011;11328;53.928;18.522;2022-07-18T10:57:34;7.03;;;2.42;;
22320;SDS011;11328;53.928;18.522;2022-07-18T11:00:13;5.80;;;2.60;;
22320;SDS011;11328;53.928;18.522;2022-07-18T11:05:33;8.23;;;2.70;;
22320;SDS011;11328;53.928;18.522;2022-07-18T11:16:12;5.70;;;2.60;;
22320;SDS011;11328;53.928;18.522;2022-07-18T11:21:17;9.93;;;3.53;;
22320;SDS011;11328;53.928;18.522;2022-07-18T11:24:03;9.27;;;2.80;;
22320;SDS011;11328;53.928;18.522;2022-07-18T11:26:38;5.72;;;2.80;;
22320;SDS011;11328;53.928;18.522;2022-07-18T11:29:15;7.82;;;2.83;;
22320;SDS011;11328;53.928;18.522;2022-07-18T11:31:54;7.18;;;3.08;;
22320;SDS011;11328;53.928;18.522;2022-07-18T11:34:24;7.30;;;3.00;;
22320;SDS011;11328;53.928;18.522;2022-07-18T11:37:05;7.18;;;3.13;;
22320;SDS011;11328;53.928;18.522;2022-07-18T11:39:34;7.88;;;2.95;;
22320;SDS011;11328;53.928;18.522;2022-07-18T11:42:02;7.18;;;2.90;;
22320;SDS011;11328;53.928;18.522;2022-07-18T11:44:30;8.20;;;3.03;;
22320;SDS011;11328;53.928;18.522;2022-07-18T11:47:08;6.80;;;2.80;;
22320;SDS011;11328;53.928;18.522;2022-07-18T11:49:38;8.10;;;2.70;;
22320;SDS011;11328;53.928;18.522;2022-07-18T11:52:06;6.90;;;3.00;;
22320;SDS011;11328;53.928;18.522;2022-07-18T11:54:34;7.32;;;2.80;;
22320;SDS011;11328;53.928;18.522;2022-07-18T11:57:02;8.32;;;3.20;;
22320;SDS011;11328;53.928;18.522;2022-07-18T11:59:39;8.70;;;3.05;;
22320;SDS011;11328;53.928;18.522;2022-07-18T12:02:10;11.18;;;2.85;;
22320;SDS011;11328;53.928;18.522;2022-07-18T12:04:39;7.22;;;3.13;;
22320;SDS011;11328;53.928;18.522;2022-07-18T12:07:20;15.10;;;3.05;;
22320;SDS011;11328;53.928;18.522;2022-07-18T12:09:51;7.75;;;3.00;;
22320;SDS011;11328;53.928;18.522;2022-07-18T12:12:20;6.10;;;2.58;;
22320;SDS011;11328;53.928;18.522;2022-07-18T12:14:57;16.73;;;3.10;;
22320;SDS011;11328;53.928;18.522;2022-07-18T12:17:28;7.88;;;2.83;;
22320;SDS011;11328;53.928;18.522;2022-07-18T12:20:10;11.00;;;2.80;;
22320;SDS011;11328;53.928;18.522;2022-07-18T12:25:40;19.15;;;3.53;;
22320;SDS011;11328;53.928;18.522;2022-07-18T12:28:12;7.68;;;2.10;;
22320;SDS011;11328;53.928;18.522;2022-07-18T12:30:45;7.78;;;2.95;;
22320;SDS011;11328;53.928;18.522;2022-07-18T12:33:13;4.15;;;2.33;;
22320;SDS011;11328;53.928;18.522;2022-07-18T12:35:40;7.20;;;2.60;;
22320;SDS011;11328;53.928;18.522;2022-07-18T12:40:44;5.78;;;2.63;;
22320;SDS011;11328;53.928;18.522;2022-07-18T12:46:08;19.92;;;3.00;;
22320;SDS011;11328;53.928;18.522;2022-07-18T12:48:37;11.63;;;2.80;;
22320;SDS011;11328;53.928;18.522;2022-07-18T12:53:35;6.00;;;2.22;;
22320;SDS011;11328;53.928;18.522;2022-07-18T12:56:06;5.20;;;2.50;;
22320;SDS011;11328;53.928;18.522;2022-07-18T12:58:34;13.38;;;2.88;;
22320;SDS011;11328;53.928;18.522;2022-07-18T13:01:02;6.55;;;2.53;;
22320;SDS011;11328;53.928;18.522;2022-07-18T13:03:32;4.32;;;2.20;;
22320;SDS011;11328;53.928;18.522;2022-07-18T13:06:00;3.50;;;2.10;;
22320;SDS011;11328;53.928;18.522;2022-07-18T13:08:27;16.42;;;2.40;;
22320;SDS011;11328;53.928;18.522;2022-07-18T13:10:54;5.80;;;2.20;;
22320;SDS011;11328;53.928;18.522;2022-07-18T13:13:24;6.43;;;2.08;;
22320;SDS011;11328;53.928;18.522;2022-07-18T13:15:51;5.63;;;2.15;;
22320;SDS011;11328;53.928;18.522;2022-07-18T13:18:19;2.97;;;1.90;;
22320;SDS011;11328;53.928;18.522;2022-07-18T13:20:46;5.95;;;2.10;;
22320;SDS011;11328;53.928;18.522;2022-07-18T13:23:13;5.57;;;2.33;;
22320;SDS011;11328;53.928;18.522;2022-07-18T13:25:42;5.97;;;1.98;;
22320;SDS011;11328;53.928;18.522;2022-07-18T13:28:09;7.32;;;2.10;;
22320;SDS011;11328;53.928;18.522;2022-07-18T13:30:37;5.07;;;2.38;;
22320;SDS011;11328;53.928;18.522;2022-07-18T13:33:04;6.55;;;2.58;;
22320;SDS011;11328;53.928;18.522;2022-07-18T13:35:31;11.55;;;2.58;;
22320;SDS011;11328;53.928;18.522;2022-07-18T13:37:59;5.10;;;2.10;;
22320;SDS011;11328;53.928;18.522;2022-07-18T13:40:27;6.22;;;2.20;;
22320;SDS011;11328;53.928;18.522;2022-07-18T13:42:54;5.70;;;2.08;;
22320;SDS011;11328;53.928;18.522;2022-07-18T13:45:21;12.98;;;2.65;;
22320;SDS011;11328;53.928;18.522;2022-07-18T13:47:49;5.28;;;1.98;;
22320;SDS011;11328;53.928;18.522;2022-07-18T13:50:16;5.28;;;2.28;;
22320;SDS011;11328;53.928;18.522;2022-07-18T13:52:43;9.50;;;2.33;;
22320;SDS011;11328;53.928;18.522;2022-07-18T13:55:10;12.77;;;2.85;;
22320;SDS011;11328;53.928;18.522;2022-07-18T13:57:37;12.48;;;2.47;;
22320;SDS011;11328;53.928;18.522;2022-07-18T14:00:05;5.68;;;2.20;;
22320;SDS011;11328;53.928;18.522;2022-07-18T14:02:35;4.35;;;2.10;;
22320;SDS011;11328;53.928;18.522;2022-07-18T14:05:03;12.43;;;2.00;;
22320;SDS011;11328;53.928;18.522;2022-07-18T14:07:38;9.43;;;2.15;;
22320;SDS011;11328;53.928;18.522;2022-07-18T14:10:05;3.53;;;1.80;;
22320;SDS011;11328;53.928;18.522;2022-07-18T14:12:33;9.02;;;2.05;;
22320;SDS011;11328;53.928;18.522;2022-07-18T14:15:00;4.72;;;2.00;;
22320;SDS011;11328;53.928;18.522;2022-07-18T14:17:28;6.40;;;2.25;;
22320;SDS011;11328;53.928;18.522;2022-07-18T14:19:56;5.70;;;2.00;;
22320;SDS011;11328;53.928;18.522;2022-07-18T14:33:29;25.27;;;3.10;;
22320;SDS011;11328;53.928;18.522;2022-07-18T14:35:56;5.78;;;2.05;;
22320;SDS011;11328;53.928;18.522;2022-07-18T14:38:23;4.80;;;1.98;;
22320;SDS011;11328;53.928;18.522;2022-07-18T14:40:50;4.38;;;2.17;;
22320;SDS011;11328;53.928;18.522;2022-07-18T14:43:17;4.35;;;1.90;;
22320;SDS011;11328;53.928;18.522;2022-07-18T14:45:45;4.97;;;1.92;;
22320;SDS011;11328;53.928;18.522;2022-07-18T14:48:28;5.50;;;1.95;;
22320;SDS011;11328;53.928;18.522;2022-07-18T14:50:55;4.35;;;2.10;;
22320;SDS011;11328;53.928;18.522;2022-07-18T14:53:22;5.70;;;2.10;;
22320;SDS011;11328;53.928;18.522;2022-07-18T14:55:49;8.88;;;2.10;;
22320;SDS011;11328;53.928;18.522;2022-07-18T14:58:17;8.32;;;2.28;;
22320;SDS011;11328;53.928;18.522;2022-07-18T15:00:45;8.93;;;2.10;;
22320;SDS011;11328;53.928;18.522;2022-07-18T15:03:12;9.85;;;2.60;;
22320;SDS011;11328;53.928;18.522;2022-07-18T15:05:59;8.82;;;2.40;;
22320;SDS011;11328;53.928;18.522;2022-07-18T15:08:26;4.57;;;2.20;;
22320;SDS011;11328;53.928;18.522;2022-07-18T15:10:54;7.75;;;2.08;;
22320;SDS011;11328;53.928;18.522;2022-07-18T15:13:21;7.07;;;2.33;;
22320;SDS011;11328;53.928;18.522;2022-07-18T15:15:48;6.32;;;2.17;;
22320;SDS011;11328;53.928;18.522;2022-07-18T15:18:17;8.00;;;2.33;;
22320;SDS011;11328;53.928;18.522;2022-07-18T15:20:45;4.25;;;2.30;;
22320;SDS011;11328;53.928;18.522;2022-07-18T15:23:12;7.53;;;2.47;;
22320;SDS011;11328;53.928;18.522;2022-07-18T15:25:39;6.03;;;2.47;;
22320;SDS011;11328;53.928;18.522;2022-07-18T15:28:06;3.95;;;2.15;;
22320;SDS011;11328;53.928;18.522;2022-07-18T15:30:34;6.70;;;2.30;;
22320;SDS011;11328;53.928;18.522;2022-07-18T15:33:12;6.20;;;2.40;;
22320;SDS011;11328;53.928;18.522;2022-07-18T15:35:40;4.80;;;2.20;;
22320;SDS011;11328;53.928;18.522;2022-07-18T15:38:09;6.35;;;2.38;;
22320;SDS011;11328;53.928;18.522;2022-07-18T15:40:36;4.80;;;2.20;;